高雄終端管制區 - 高雄雷達席

METAR RCKH 251000Z 30006KT 270V330 9999 FEW015 SCT070 BKN130 30/24 Q1006 NOSIG RMK A2973=

站台狀態:Offline
最後更新:2022-09-25 18:00:02